createdAt,value
2023-01-19T00:01:24.430Z,15.63
2023-01-19T00:03:52.403Z,15.74
2023-01-19T00:06:20.377Z,15.83
2023-01-19T00:08:51.321Z,15.78
2023-01-19T00:11:19.424Z,15.82
2023-01-19T00:13:53.755Z,15.83
2023-01-19T00:16:23.227Z,15.85
2023-01-19T00:18:51.977Z,15.86
2023-01-19T00:21:20.037Z,15.88
2023-01-19T00:23:51.187Z,15.87
2023-01-19T00:26:19.361Z,15.85
2023-01-19T00:28:47.262Z,15.85
2023-01-19T00:31:15.216Z,15.87
2023-01-19T00:33:43.175Z,15.88
2023-01-19T00:36:11.697Z,15.91
2023-01-19T00:38:40.105Z,15.86
2023-01-19T00:41:10.206Z,15.93
2023-01-19T00:43:37.175Z,16.02
2023-01-19T00:46:05.133Z,16.03
2023-01-19T00:48:33.118Z,15.96
2023-01-19T00:51:01.197Z,15.95
2023-01-19T00:53:32.517Z,15.94
2023-01-19T00:56:00.624Z,15.90
2023-01-19T00:58:30.047Z,15.84
2023-01-19T01:01:03.606Z,15.82
2023-01-19T01:03:31.836Z,15.78
2023-01-19T01:05:59.870Z,15.76
2023-01-19T01:08:27.805Z,15.85
2023-01-19T01:10:55.772Z,15.75
2023-01-19T01:13:26.396Z,15.72
2023-01-19T01:15:57.099Z,15.62
2023-01-19T01:18:25.371Z,15.58
2023-01-19T01:20:55.347Z,15.49
2023-01-19T01:23:24.237Z,15.46
2023-01-19T01:25:52.212Z,15.40
2023-01-19T01:28:20.150Z,15.38
2023-01-19T01:30:48.034Z,15.31
2023-01-19T01:33:41.012Z,15.26
2023-01-19T01:36:05.719Z,15.20
2023-01-19T01:38:33.680Z,15.17
2023-01-19T01:41:01.621Z,15.10
2023-01-19T01:43:42.900Z,15.04
2023-01-19T01:46:10.896Z,14.97
2023-01-19T01:48:40.236Z,14.89
2023-01-19T01:51:27.340Z,14.86
2023-01-19T01:54:03.074Z,14.80
2023-01-19T01:56:34.169Z,14.73
2023-01-19T01:59:02.440Z,14.79
2023-01-19T02:01:46.861Z,14.82
2023-01-19T02:04:16.249Z,14.75
2023-01-19T02:07:01.537Z,14.70
2023-01-19T02:09:46.945Z,14.60
2023-01-19T02:12:32.319Z,14.57
2023-01-19T02:15:00.276Z,14.49
2023-01-19T02:17:28.185Z,14.48
2023-01-19T02:19:58.151Z,14.46
2023-01-19T02:22:27.480Z,14.47
2023-01-19T02:24:56.839Z,14.45
2023-01-19T02:27:24.806Z,14.44
2023-01-19T02:29:53.572Z,14.42
2023-01-19T02:32:21.551Z,14.37
2023-01-19T02:34:49.528Z,14.39
2023-01-19T02:37:17.477Z,14.49
2023-01-19T02:39:46.733Z,14.55
2023-01-19T02:42:18.432Z,14.54
2023-01-19T02:44:48.267Z,14.51
2023-01-19T02:47:16.255Z,14.70
2023-01-19T02:49:44.196Z,14.64
2023-01-19T02:52:16.040Z,14.59
2023-01-19T02:54:49.384Z,14.67
2023-01-19T02:57:36.705Z,14.72
2023-01-19T03:00:09.894Z,14.81
2023-01-19T03:02:44.949Z,14.88
2023-01-19T03:05:21.959Z,14.93
2023-01-19T03:07:54.217Z,15.00
2023-01-19T03:10:24.955Z,14.86
2023-01-19T03:12:56.150Z,15.09
2023-01-19T03:15:27.532Z,15.09
2023-01-19T03:17:55.494Z,15.03
2023-01-19T03:20:25.624Z,15.05
2023-01-19T03:22:55.907Z,15.19
2023-01-19T03:25:23.951Z,15.19
2023-01-19T03:27:52.303Z,15.14
2023-01-19T03:30:23.242Z,15.10
2023-01-19T03:32:52.765Z,15.09
2023-01-19T03:35:22.995Z,15.03
2023-01-19T03:37:53.050Z,15.13
2023-01-19T03:40:21.110Z,15.13
2023-01-19T03:42:49.090Z,15.18
2023-01-19T03:45:17.211Z,15.23
2023-01-19T03:47:46.503Z,15.23
2023-01-19T03:50:15.941Z,15.22
2023-01-19T03:52:43.910Z,15.20
2023-01-19T03:55:12.649Z,15.32
2023-01-19T03:57:40.775Z,15.21
2023-01-19T04:00:10.047Z,15.17
2023-01-19T04:02:38.062Z,15.13
2023-01-19T04:05:08.305Z,15.02
2023-01-19T04:07:36.293Z,15.06
2023-01-19T04:10:04.610Z,15.11
2023-01-19T04:12:32.556Z,15.12
2023-01-19T04:15:00.543Z,15.05
2023-01-19T04:17:28.535Z,14.98
2023-01-19T04:19:56.504Z,14.96
2023-01-19T04:22:25.880Z,14.93
2023-01-19T04:24:53.801Z,14.95
2023-01-19T04:27:21.833Z,14.77
2023-01-19T04:29:49.776Z,14.78
2023-01-19T04:32:17.744Z,14.73
2023-01-19T04:34:45.739Z,14.71
2023-01-19T04:37:14.099Z,14.68
2023-01-19T04:39:43.483Z,14.63
2023-01-19T04:42:11.395Z,14.52
2023-01-19T04:44:39.358Z,14.50
2023-01-19T04:47:07.319Z,14.55
2023-01-19T04:49:37.634Z,14.60
2023-01-19T04:52:06.211Z,14.62
2023-01-19T04:54:34.234Z,14.63
2023-01-19T04:57:03.593Z,14.68
2023-01-19T04:59:31.548Z,14.68
2023-01-19T05:01:59.543Z,14.70
2023-01-19T05:04:27.760Z,14.71
2023-01-19T05:06:56.067Z,14.69
2023-01-19T05:09:24.365Z,14.61
2023-01-19T05:11:52.273Z,14.53
2023-01-19T05:14:21.773Z,14.49
2023-01-19T05:16:49.735Z,14.42
2023-01-19T05:19:17.703Z,14.30
2023-01-19T05:21:45.639Z,14.26
2023-01-19T05:24:13.738Z,14.17
2023-01-19T05:26:41.701Z,14.03
2023-01-19T05:29:10.305Z,14.14
2023-01-19T05:31:39.713Z,14.15
2023-01-19T05:34:07.691Z,14.20
2023-01-19T05:36:35.651Z,14.29
2023-01-19T05:39:03.548Z,14.30
2023-01-19T05:41:31.540Z,14.29
2023-01-19T05:43:59.557Z,14.30
2023-01-19T05:46:27.584Z,14.29
2023-01-19T05:48:56.907Z,14.28
2023-01-19T05:51:25.571Z,14.26
2023-01-19T05:53:53.534Z,14.18
2023-01-19T05:56:21.537Z,14.13
2023-01-19T05:58:49.506Z,14.14
2023-01-19T06:01:17.546Z,14.13
2023-01-19T06:03:45.568Z,14.18
2023-01-19T06:06:15.394Z,14.25
2023-01-19T06:08:43.413Z,14.22
2023-01-19T06:11:11.377Z,14.16
2023-01-19T06:13:41.994Z,14.22
2023-01-19T06:16:10.662Z,14.27
2023-01-19T06:18:38.676Z,14.29
2023-01-19T06:21:07.437Z,14.32
2023-01-19T06:23:36.904Z,14.27
2023-01-19T06:26:04.947Z,14.27
2023-01-19T06:28:32.933Z,14.35
2023-01-19T06:31:01.162Z,14.38
2023-01-19T06:33:29.195Z,14.47
2023-01-19T06:35:57.172Z,14.53
2023-01-19T06:38:25.329Z,14.66
2023-01-19T06:40:55.343Z,14.71
2023-01-19T06:43:23.316Z,14.88
2023-01-19T06:45:51.317Z,14.97
2023-01-19T06:48:19.339Z,15.21
2023-01-19T06:50:47.453Z,15.33
2023-01-19T06:53:16.711Z,15.50
2023-01-19T06:55:44.810Z,15.54
2023-01-19T06:58:14.317Z,15.68
2023-01-19T07:00:43.044Z,15.79
2023-01-19T07:03:12.599Z,15.85
2023-01-19T07:05:40.596Z,16.20
2023-01-19T07:08:08.634Z,16.28
2023-01-19T07:11:25.949Z,16.40
2023-01-19T07:13:26.717Z,16.38
2023-01-19T07:15:54.683Z,16.47
2023-01-19T07:18:22.647Z,16.52
2023-01-19T07:20:50.577Z,16.69
2023-01-19T07:23:18.515Z,16.67
2023-01-19T07:25:46.838Z,16.85
2023-01-19T07:28:16.035Z,16.90
2023-01-19T07:30:46.354Z,16.99
2023-01-19T07:33:14.393Z,16.99
2023-01-19T07:35:46.883Z,17.09
2023-01-19T07:38:14.849Z,17.19
2023-01-19T07:40:42.936Z,17.19
2023-01-19T07:43:10.946Z,17.27
2023-01-19T07:45:39.072Z,17.35
2023-01-19T07:48:08.631Z,17.43
2023-01-19T07:50:36.554Z,17.44
2023-01-19T07:53:07.696Z,17.44
2023-01-19T07:55:35.684Z,17.66
2023-01-19T07:58:06.692Z,17.74
2023-01-19T08:00:35.361Z,17.79
2023-01-19T08:03:03.997Z,17.89
2023-01-19T08:05:33.649Z,17.93
2023-01-19T08:08:01.622Z,17.94
2023-01-19T08:10:29.699Z,17.96
2023-01-19T08:12:58.328Z,18.14
2023-01-19T08:15:26.699Z,18.15
2023-01-19T08:17:58.691Z,18.24
2023-01-19T08:20:27.200Z,18.37
2023-01-19T08:23:00.203Z,18.37
2023-01-19T08:25:28.777Z,18.53
2023-01-19T08:27:57.244Z,18.58
2023-01-19T08:30:26.940Z,18.63
2023-01-19T08:32:58.151Z,18.69
2023-01-19T08:35:26.413Z,18.75
2023-01-19T08:37:54.408Z,18.80
2023-01-19T08:40:23.772Z,18.94
2023-01-19T08:42:51.737Z,18.97
2023-01-19T08:45:19.728Z,19.19
2023-01-19T08:47:47.761Z,19.34
2023-01-19T08:50:15.782Z,19.47
2023-01-19T08:52:43.759Z,19.64
2023-01-19T08:55:12.342Z,19.76
2023-01-19T08:57:42.788Z,19.81
2023-01-19T09:00:11.771Z,19.90
2023-01-19T09:02:39.810Z,20.00
2023-01-19T09:05:08.783Z,20.13
2023-01-19T09:07:37.012Z,20.29
2023-01-19T09:10:05.208Z,20.44
2023-01-19T09:12:33.206Z,20.74
2023-01-19T09:15:02.570Z,21.23
2023-01-19T09:17:30.581Z,21.70
2023-01-19T09:19:58.505Z,21.98
2023-01-19T09:22:26.452Z,22.08
2023-01-19T09:24:54.489Z,22.16
2023-01-19T09:27:22.427Z,22.38
2023-01-19T09:29:52.672Z,22.68
2023-01-19T09:32:22.977Z,22.47
2023-01-19T09:34:51.181Z,21.87
2023-01-19T09:37:19.145Z,21.85
2023-01-19T09:39:47.204Z,22.11
2023-01-19T09:42:18.380Z,22.39
2023-01-19T09:44:46.315Z,22.58
2023-01-19T09:47:15.490Z,22.98
2023-01-19T09:49:45.913Z,23.38
2023-01-19T09:52:13.910Z,23.37
2023-01-19T09:54:44.454Z,23.50
2023-01-19T09:57:12.450Z,23.67
2023-01-19T09:59:40.423Z,23.65
2023-01-19T10:02:27.642Z,23.92
2023-01-19T10:05:00.507Z,23.66
2023-01-19T10:07:35.233Z,23.57
2023-01-19T10:10:11.106Z,23.47
2023-01-19T10:12:46.236Z,23.30
2023-01-19T10:15:18.943Z,23.38
2023-01-19T10:17:52.349Z,23.62
2023-01-19T10:20:27.801Z,23.68
2023-01-19T10:22:55.769Z,23.80
2023-01-19T10:25:25.063Z,23.74
2023-01-19T10:27:53.274Z,23.77
2023-01-19T10:30:23.362Z,24.03
2023-01-19T10:32:51.619Z,24.23
2023-01-19T10:35:25.422Z,24.23
2023-01-19T10:37:54.811Z,24.31
2023-01-19T10:40:28.370Z,24.43
2023-01-19T10:42:56.418Z,24.12
2023-01-19T10:45:25.726Z,24.19
2023-01-19T10:47:54.138Z,23.96
2023-01-19T10:50:28.441Z,24.25
2023-01-19T10:52:57.413Z,24.06
2023-01-19T10:55:27.225Z,24.16
2023-01-19T10:57:55.212Z,23.69
2023-01-19T11:00:37.848Z,23.54
2023-01-19T11:03:06.557Z,23.46
2023-01-19T11:05:36.425Z,23.28
2023-01-19T11:08:13.613Z,23.15
2023-01-19T11:10:41.595Z,23.49
2023-01-19T11:13:12.755Z,23.46
2023-01-19T11:15:43.107Z,23.56
2023-01-19T11:18:24.070Z,23.44
2023-01-19T11:20:53.799Z,23.46
2023-01-19T11:23:26.242Z,23.42
2023-01-19T11:25:54.474Z,23.48
2023-01-19T11:28:25.835Z,23.49
2023-01-19T11:30:58.496Z,23.72
2023-01-19T11:33:27.398Z,23.85
2023-01-19T11:36:05.858Z,24.00
2023-01-19T11:38:33.796Z,23.99
2023-01-19T11:41:04.281Z,24.10
2023-01-19T11:43:48.322Z,23.71
2023-01-19T11:46:17.225Z,23.65
2023-01-19T11:48:48.469Z,23.44
2023-01-19T11:51:18.697Z,23.24
2023-01-19T11:53:49.638Z,23.01
2023-01-19T11:56:17.627Z,22.75
2023-01-19T11:58:46.905Z,22.57
2023-01-19T12:01:21.116Z,22.43
2023-01-19T12:03:54.713Z,22.33
2023-01-19T12:06:26.810Z,21.93
2023-01-19T12:08:56.071Z,21.66
2023-01-19T12:11:26.442Z,21.36
2023-01-19T12:13:54.456Z,21.25
2023-01-19T12:16:23.122Z,21.15
2023-01-19T12:18:53.429Z,21.19
2023-01-19T12:21:21.419Z,21.10
2023-01-19T12:23:54.888Z,20.95
2023-01-19T12:26:35.168Z,20.83
2023-01-19T12:29:07.017Z,20.74
2023-01-19T12:31:35.239Z,20.74
2023-01-19T12:34:36.140Z,20.94
2023-01-19T12:37:04.959Z,20.78
2023-01-19T12:39:35.439Z,20.75
2023-01-19T12:42:08.870Z,20.68
2023-01-19T12:44:36.814Z,20.65
2023-01-19T12:47:20.312Z,20.49
2023-01-19T12:49:49.006Z,20.45
2023-01-19T12:52:26.783Z,20.50
2023-01-19T12:54:59.161Z,20.48
2023-01-19T12:57:29.083Z,20.54
2023-01-19T12:59:58.352Z,20.66
2023-01-19T13:02:42.025Z,20.47
2023-01-19T13:05:18.241Z,20.38
2023-01-19T13:08:14.967Z,20.46
2023-01-19T13:11:26.035Z,20.39
2023-01-19T13:14:36.508Z,20.43
2023-01-19T13:17:27.046Z,20.37
2023-01-19T13:20:33.560Z,20.28
2023-01-19T13:23:25.155Z,20.15
2023-01-19T13:26:00.063Z,20.22
2023-01-19T13:28:32.371Z,20.11
2023-01-19T13:31:02.651Z,19.99
2023-01-19T13:33:36.247Z,19.78
2023-01-19T13:36:04.336Z,19.73
2023-01-19T13:38:33.226Z,19.62
2023-01-19T13:41:02.573Z,19.62
2023-01-19T13:43:32.808Z,19.53
2023-01-19T13:46:00.845Z,19.43
2023-01-19T13:48:28.892Z,19.20
2023-01-19T13:51:02.041Z,19.28
2023-01-19T13:53:30.626Z,19.13
2023-01-19T13:56:20.791Z,19.09
2023-01-19T13:59:09.987Z,18.98
2023-01-19T14:01:39.282Z,18.94
2023-01-19T14:04:07.596Z,18.89
2023-01-19T14:06:38.742Z,18.78
2023-01-19T14:09:11.697Z,18.69
2023-01-19T14:11:41.065Z,18.54
2023-01-19T14:14:23.586Z,18.49
2023-01-19T14:16:51.586Z,18.45
2023-01-19T14:19:19.553Z,18.37
2023-01-19T14:21:47.487Z,18.36
2023-01-19T14:24:18.724Z,18.26
2023-01-19T14:26:49.220Z,18.23
2023-01-19T14:29:19.398Z,18.14
2023-01-19T14:31:48.444Z,18.08
2023-01-19T15:02:45.815Z,17.03
2023-01-19T15:05:14.014Z,17.04
2023-01-19T15:07:43.192Z,16.97
2023-01-19T15:10:14.284Z,16.96
2023-01-19T15:12:42.271Z,17.06
2023-01-19T15:15:15.288Z,17.01
2023-01-19T15:17:43.281Z,17.16
2023-01-19T15:20:16.051Z,17.09
2023-01-19T15:22:44.370Z,17.04
2023-01-19T15:25:14.592Z,16.89
2023-01-19T15:27:42.787Z,16.85
2023-01-19T15:30:20.932Z,16.79
2023-01-19T15:32:48.932Z,16.82
2023-01-19T15:35:22.439Z,16.69
2023-01-19T15:37:50.648Z,16.77
2023-01-19T15:40:19.223Z,16.68
2023-01-19T15:42:47.216Z,16.66
2023-01-19T15:45:34.517Z,16.67
2023-01-19T15:48:03.948Z,16.64
2023-01-19T15:50:33.353Z,16.46
2023-01-19T15:53:01.318Z,16.50
2023-01-19T15:55:29.405Z,16.45
2023-01-19T15:58:01.856Z,16.39
2023-01-19T16:00:30.420Z,16.29
2023-01-19T16:02:58.761Z,16.30
2023-01-19T16:05:37.666Z,16.28
2023-01-19T16:08:11.847Z,16.17
2023-01-19T16:10:39.948Z,16.20
2023-01-19T16:13:07.927Z,16.16
2023-01-19T16:15:35.931Z,16.20
2023-01-19T16:18:04.032Z,16.19
2023-01-19T16:20:32.002Z,16.08
2023-01-19T16:23:13.540Z,16.09
2023-01-19T16:25:44.289Z,16.05
2023-01-19T16:28:12.257Z,15.98
2023-01-19T16:30:40.292Z,15.95
2023-01-19T16:33:08.517Z,15.90
2023-01-19T16:35:36.493Z,15.94
2023-01-19T16:38:04.431Z,16.03
2023-01-19T16:40:32.359Z,16.18
2023-01-19T16:43:01.694Z,16.13
2023-01-19T16:45:29.612Z,16.13
2023-01-19T16:47:57.545Z,16.12
2023-01-19T16:50:25.524Z,16.10
2023-01-19T16:52:57.288Z,16.12
2023-01-19T16:55:25.200Z,16.00
2023-01-19T16:57:53.612Z,15.99
2023-01-19T17:00:23.198Z,16.00
2023-01-19T17:02:51.124Z,15.91
2023-01-19T17:05:19.081Z,16.07
2023-01-19T17:07:47.028Z,16.10
2023-01-19T17:10:14.952Z,16.07
2023-01-19T17:12:42.927Z,16.04
2023-01-19T17:15:11.576Z,15.97
2023-01-19T17:17:40.880Z,15.91
2023-01-19T17:20:10.602Z,15.95
2023-01-19T17:22:38.785Z,15.90
2023-01-19T17:25:07.743Z,15.85
2023-01-19T17:27:36.693Z,15.84
2023-01-19T17:30:04.845Z,15.90
2023-01-19T17:32:32.853Z,15.88
2023-01-19T17:35:02.222Z,15.88
2023-01-19T17:37:30.191Z,15.79
2023-01-19T17:39:58.123Z,15.73
2023-01-19T17:42:26.077Z,15.76
2023-01-19T17:44:54.026Z,15.66
2023-01-19T17:47:25.473Z,15.72
2023-01-19T17:49:53.484Z,15.71
2023-01-19T17:52:22.922Z,15.71
2023-01-19T17:54:50.930Z,15.80
2023-01-19T17:57:18.863Z,15.75
2023-01-19T17:59:47.319Z,15.74
2023-01-19T18:02:15.400Z,15.83
2023-01-19T18:04:43.593Z,15.79
2023-01-19T18:07:11.545Z,15.78
2023-01-19T18:09:40.862Z,15.77
2023-01-19T18:12:09.043Z,15.61
2023-01-19T18:14:37.040Z,15.54
2023-01-19T18:17:05.048Z,15.53
2023-01-19T18:19:33.027Z,15.52
2023-01-19T18:22:00.965Z,15.73
2023-01-19T18:24:29.361Z,15.68
2023-01-19T18:26:58.725Z,15.54
2023-01-19T18:29:26.746Z,15.59
2023-01-19T18:31:54.744Z,15.63
2023-01-19T18:34:22.854Z,15.64
2023-01-19T18:36:50.830Z,15.69
2023-01-19T18:39:18.795Z,15.69
2023-01-19T18:41:46.771Z,15.69
2023-01-19T18:44:16.154Z,15.75
2023-01-19T18:46:44.132Z,15.72
2023-01-19T18:49:12.137Z,15.65
2023-01-19T18:51:41.582Z,15.52
2023-01-19T18:54:09.636Z,15.53
2023-01-19T18:56:37.576Z,15.46
2023-01-19T18:59:05.535Z,15.48
2023-01-19T19:01:36.119Z,15.47
2023-01-19T19:04:04.204Z,15.50
2023-01-19T19:06:32.192Z,15.44
2023-01-19T19:09:00.329Z,15.50
2023-01-19T19:11:28.282Z,15.49
2023-01-19T19:13:57.262Z,15.50
2023-01-19T19:16:25.313Z,15.55
2023-01-19T19:18:54.615Z,15.58
2023-01-19T19:21:24.016Z,15.67
2023-01-19T19:23:52.387Z,15.60
2023-01-19T19:26:20.349Z,15.70
2023-01-19T19:28:48.494Z,15.68
2023-01-19T19:31:18.153Z,15.68
2023-01-19T19:33:46.143Z,15.66
2023-01-19T19:36:15.515Z,15.63
2023-01-19T19:38:44.527Z,15.70
2023-01-19T19:41:14.797Z,15.68
2023-01-19T19:43:43.182Z,15.70
2023-01-19T19:46:12.022Z,15.52
2023-01-19T19:48:40.008Z,15.53
2023-01-19T19:51:17.604Z,15.59
2023-01-19T19:53:51.158Z,15.62
2023-01-19T19:56:21.201Z,15.55
2023-01-19T19:58:49.432Z,15.48
2023-01-19T20:01:18.508Z,15.57
2023-01-19T20:03:46.508Z,15.46
2023-01-19T20:06:15.639Z,15.45
2023-01-19T20:08:43.588Z,15.45
2023-01-19T20:11:14.204Z,15.34
2023-01-19T20:13:42.902Z,15.35
2023-01-19T20:16:12.534Z,15.29
2023-01-19T20:18:40.770Z,15.25
2023-01-19T20:21:12.436Z,15.20
2023-01-19T20:23:40.489Z,15.20
2023-01-19T20:26:09.115Z,15.16
2023-01-19T20:28:38.431Z,15.08
2023-01-19T20:31:11.199Z,15.03
2023-01-19T20:33:39.143Z,15.01
2023-01-19T20:36:07.314Z,14.95
2023-01-19T20:38:35.292Z,15.02
2023-01-19T20:41:03.297Z,15.09
2023-01-19T20:43:31.546Z,15.02
2023-01-19T20:46:00.851Z,15.01
2023-01-19T20:48:28.942Z,14.97
2023-01-19T20:50:59.362Z,14.87
2023-01-19T20:53:27.371Z,14.86
2023-01-19T20:55:55.295Z,14.77
2023-01-19T20:58:23.491Z,14.64
2023-01-19T21:00:51.520Z,14.70
2023-01-19T21:03:20.846Z,14.74
2023-01-19T21:05:49.136Z,14.69
2023-01-19T21:08:18.229Z,14.68
2023-01-19T21:10:46.151Z,14.59
2023-01-19T21:13:14.300Z,14.58
2023-01-19T21:15:42.227Z,14.52
2023-01-19T21:18:10.195Z,14.49
2023-01-19T21:20:39.482Z,14.69
2023-01-19T21:23:07.441Z,14.59
2023-01-19T21:25:37.218Z,14.51
2023-01-19T21:28:05.209Z,14.54
2023-01-19T21:30:33.257Z,14.41
2023-01-19T21:33:02.288Z,14.27
2023-01-19T21:35:30.230Z,14.03
2023-01-19T21:37:59.559Z,13.86
2023-01-19T21:40:27.591Z,13.52
2023-01-19T21:42:55.554Z,13.22
2023-01-19T21:45:23.863Z,13.05
2023-01-19T21:47:51.832Z,12.91
2023-01-19T21:50:20.111Z,12.79
2023-01-19T21:52:48.043Z,12.58
2023-01-19T21:55:17.929Z,12.40
2023-01-19T21:57:45.899Z,12.37
2023-01-19T22:00:14.164Z,12.33
2023-01-19T22:02:45.112Z,12.29
2023-01-19T22:05:17.426Z,12.19
2023-01-19T22:07:45.377Z,12.10
2023-01-19T22:10:13.439Z,12.04
2023-01-19T22:12:42.773Z,11.94
2023-01-19T22:15:11.611Z,11.93
2023-01-19T22:17:39.745Z,12.02
2023-01-19T22:20:09.327Z,12.07
2023-01-19T22:22:37.311Z,12.20
2023-01-19T22:25:06.060Z,12.67
2023-01-19T22:27:34.061Z,13.07
2023-01-19T22:30:03.445Z,13.35
2023-01-19T22:32:31.401Z,13.63
2023-01-19T22:34:59.378Z,13.90
2023-01-19T22:37:27.348Z,14.00
2023-01-19T22:39:55.308Z,14.10
2023-01-19T22:42:23.225Z,13.94
2023-01-19T22:44:51.189Z,13.69
2023-01-19T22:47:20.633Z,13.43
2023-01-19T22:49:48.580Z,13.14
2023-01-19T22:52:16.547Z,12.94
2023-01-19T22:54:44.457Z,12.58
2023-01-19T22:57:12.438Z,12.31
2023-01-19T22:59:40.364Z,12.05
2023-01-19T23:02:09.262Z,11.91
2023-01-19T23:04:39.550Z,11.80
2023-01-19T23:07:09.300Z,11.69
2023-01-19T23:09:38.501Z,11.55
2023-01-19T23:12:06.622Z,11.42
2023-01-19T23:14:34.743Z,11.31
2023-01-19T23:17:02.831Z,11.27
2023-01-19T23:19:30.778Z,11.24
2023-01-19T23:22:00.102Z,11.30
2023-01-19T23:24:28.078Z,11.16
2023-01-19T23:26:56.015Z,11.13
2023-01-19T23:29:23.973Z,11.08
2023-01-19T23:31:53.451Z,11.07
2023-01-19T23:34:21.454Z,11.03
2023-01-19T23:36:49.408Z,11.08
2023-01-19T23:39:19.592Z,11.00
2023-01-19T23:41:47.706Z,11.04
2023-01-19T23:44:15.715Z,11.04
2023-01-19T23:46:44.371Z,11.00
2023-01-19T23:49:12.450Z,10.96
2023-01-19T23:51:40.714Z,10.93
2023-01-19T23:54:08.757Z,10.88
2023-01-19T23:56:38.419Z,10.84
2023-01-19T23:59:07.243Z,10.85
